sensor_id;sensor_type;location;lat;lon;timestamp;P1;durP1;ratioP1;P2;durP2;ratioP2
19675;SDS011;39539;52.202;9.876;2023-04-02T00:02:29;8.07;;;6.22;;
19675;SDS011;39539;52.202;9.876;2023-04-02T00:05:21;7.07;;;6.38;;
19675;SDS011;39539;52.202;9.876;2023-04-02T00:07:54;7.70;;;6.55;;
19675;SDS011;39539;52.202;9.876;2023-04-02T00:10:32;10.80;;;6.85;;
19675;SDS011;39539;52.202;9.876;2023-04-02T00:13:22;7.20;;;6.18;;
19675;SDS011;39539;52.202;9.876;2023-04-02T00:15:49;11.60;;;6.65;;
19675;SDS011;39539;52.202;9.876;2023-04-02T00:18:21;7.45;;;6.32;;
19675;SDS011;39539;52.202;9.876;2023-04-02T00:21:29;7.20;;;6.22;;
19675;SDS011;39539;52.202;9.876;2023-04-02T00:23:42;10.13;;;6.05;;
19675;SDS011;39539;52.202;9.876;2023-04-02T00:29:05;7.95;;;5.43;;
19675;SDS011;39539;52.202;9.876;2023-04-02T00:31:31;7.72;;;5.10;;
19675;SDS011;39539;52.202;9.876;2023-04-02T00:34:01;5.25;;;4.30;;
19675;SDS011;39539;52.202;9.876;2023-04-02T00:36:32;8.63;;;5.35;;
19675;SDS011;39539;52.202;9.876;2023-04-02T00:39:00;5.55;;;4.97;;
19675;SDS011;39539;52.202;9.876;2023-04-02T00:41:29;7.72;;;5.13;;
19675;SDS011;39539;52.202;9.876;2023-04-02T00:44:00;7.72;;;4.30;;
19675;SDS011;39539;52.202;9.876;2023-04-02T00:46:28;7.28;;;4.57;;
19675;SDS011;39539;52.202;9.876;2023-04-02T00:49:00;10.07;;;4.60;;
19675;SDS011;39539;52.202;9.876;2023-04-02T00:52:06;4.95;;;4.43;;
19675;SDS011;39539;52.202;9.876;2023-04-02T00:54:28;6.60;;;5.32;;
19675;SDS011;39539;52.202;9.876;2023-04-02T00:56:56;6.85;;;4.35;;
19675;SDS011;39539;52.202;9.876;2023-04-02T00:59:27;5.05;;;4.03;;
19675;SDS011;39539;52.202;9.876;2023-04-02T01:04:39;5.13;;;4.43;;
19675;SDS011;39539;52.202;9.876;2023-04-02T01:07:06;5.13;;;4.13;;
19675;SDS011;39539;52.202;9.876;2023-04-02T01:09:44;4.30;;;3.90;;
19675;SDS011;39539;52.202;9.876;2023-04-02T01:15:29;5.18;;;4.05;;
19675;SDS011;39539;52.202;9.876;2023-04-02T01:18:07;6.00;;;3.80;;
19675;SDS011;39539;52.202;9.876;2023-04-02T01:23:37;4.15;;;3.42;;
19675;SDS011;39539;52.202;9.876;2023-04-02T01:31:47;4.63;;;3.58;;
19675;SDS011;39539;52.202;9.876;2023-04-02T01:34:17;6.13;;;3.75;;
19675;SDS011;39539;52.202;9.876;2023-04-02T01:42:12;3.88;;;3.13;;
19675;SDS011;39539;52.202;9.876;2023-04-02T01:44:50;3.85;;;3.08;;
19675;SDS011;39539;52.202;9.876;2023-04-02T01:47:18;3.30;;;2.88;;
19675;SDS011;39539;52.202;9.876;2023-04-02T01:49:51;3.45;;;2.55;;
19675;SDS011;39539;52.202;9.876;2023-04-02T01:52:25;4.13;;;3.00;;
19675;SDS011;39539;52.202;9.876;2023-04-02T01:54:59;4.45;;;2.80;;
19675;SDS011;39539;52.202;9.876;2023-04-02T01:57:26;4.85;;;2.83;;
19675;SDS011;39539;52.202;9.876;2023-04-02T01:59:52;4.90;;;3.53;;
19675;SDS011;39539;52.202;9.876;2023-04-02T02:02:18;5.97;;;3.58;;
19675;SDS011;39539;52.202;9.876;2023-04-02T02:04:46;3.92;;;2.90;;
19675;SDS011;39539;52.202;9.876;2023-04-02T02:07:13;4.72;;;2.28;;
19675;SDS011;39539;52.202;9.876;2023-04-02T02:09:40;3.05;;;2.67;;
19675;SDS011;39539;52.202;9.876;2023-04-02T02:12:08;4.20;;;2.80;;
19675;SDS011;39539;52.202;9.876;2023-04-02T02:14:37;4.78;;;2.85;;
19675;SDS011;39539;52.202;9.876;2023-04-02T02:17:02;2.85;;;1.80;;
19675;SDS011;39539;52.202;9.876;2023-04-02T02:19:37;2.35;;;2.08;;
19675;SDS011;39539;52.202;9.876;2023-04-02T02:24:36;3.75;;;2.78;;
19675;SDS011;39539;52.202;9.876;2023-04-02T02:27:17;2.38;;;2.17;;
19675;SDS011;39539;52.202;9.876;2023-04-02T02:29:51;3.50;;;2.83;;
19675;SDS011;39539;52.202;9.876;2023-04-02T02:32:20;4.07;;;2.33;;
19675;SDS011;39539;52.202;9.876;2023-04-02T02:35:06;5.90;;;2.58;;
19675;SDS011;39539;52.202;9.876;2023-04-02T02:37:40;3.58;;;2.00;;
19675;SDS011;39539;52.202;9.876;2023-04-02T02:40:11;3.47;;;2.65;;
19675;SDS011;39539;52.202;9.876;2023-04-02T02:42:49;5.25;;;2.25;;
19675;SDS011;39539;52.202;9.876;2023-04-02T02:45:19;5.50;;;2.22;;
19675;SDS011;39539;52.202;9.876;2023-04-02T02:47:49;6.10;;;2.38;;
19675;SDS011;39539;52.202;9.876;2023-04-02T02:50:21;2.92;;;2.28;;
19675;SDS011;39539;52.202;9.876;2023-04-02T02:52:51;3.20;;;2.33;;
19675;SDS011;39539;52.202;9.876;2023-04-02T02:55:34;4.28;;;2.13;;
19675;SDS011;39539;52.202;9.876;2023-04-02T03:00:35;2.13;;;1.58;;
19675;SDS011;39539;52.202;9.876;2023-04-02T03:03:04;3.33;;;1.70;;
19675;SDS011;39539;52.202;9.876;2023-04-02T03:05:33;4.45;;;2.00;;
19675;SDS011;39539;52.202;9.876;2023-04-02T03:07:59;3.40;;;2.15;;
19675;SDS011;39539;52.202;9.876;2023-04-02T03:13:31;1.95;;;1.58;;
19675;SDS011;39539;52.202;9.876;2023-04-02T03:16:01;2.15;;;1.88;;
19675;SDS011;39539;52.202;9.876;2023-04-02T03:23:59;3.55;;;1.88;;
19675;SDS011;39539;52.202;9.876;2023-04-02T03:26:52;2.25;;;1.83;;
19675;SDS011;39539;52.202;9.876;2023-04-02T03:29:26;2.05;;;1.75;;
19675;SDS011;39539;52.202;9.876;2023-04-02T03:31:56;5.03;;;2.10;;
19675;SDS011;39539;52.202;9.876;2023-04-02T03:34:28;3.25;;;2.10;;
19675;SDS011;39539;52.202;9.876;2023-04-02T03:37:20;2.20;;;2.00;;
19675;SDS011;39539;52.202;9.876;2023-04-02T03:39:51;4.93;;;2.25;;
19675;SDS011;39539;52.202;9.876;2023-04-02T03:42:26;3.30;;;1.83;;
19675;SDS011;39539;52.202;9.876;2023-04-02T03:45:02;3.03;;;1.70;;
19675;SDS011;39539;52.202;9.876;2023-04-02T03:50:15;3.05;;;1.70;;
19675;SDS011;39539;52.202;9.876;2023-04-02T03:52:45;2.45;;;1.58;;
19675;SDS011;39539;52.202;9.876;2023-04-02T03:55:20;1.92;;;1.40;;
19675;SDS011;39539;52.202;9.876;2023-04-02T03:57:52;3.10;;;1.50;;
19675;SDS011;39539;52.202;9.876;2023-04-02T04:00:32;4.03;;;1.83;;
19675;SDS011;39539;52.202;9.876;2023-04-02T04:03:09;2.75;;;1.75;;
19675;SDS011;39539;52.202;9.876;2023-04-02T04:05:48;1.88;;;1.40;;
19675;SDS011;39539;52.202;9.876;2023-04-02T04:08:22;2.45;;;1.52;;
19675;SDS011;39539;52.202;9.876;2023-04-02T04:10:51;2.10;;;1.50;;
19675;SDS011;39539;52.202;9.876;2023-04-02T04:13:22;3.92;;;1.65;;
19675;SDS011;39539;52.202;9.876;2023-04-02T04:15:58;4.13;;;1.50;;
19675;SDS011;39539;52.202;9.876;2023-04-02T04:18:33;2.70;;;1.20;;
19675;SDS011;39539;52.202;9.876;2023-04-02T04:21:25;2.63;;;1.60;;
19675;SDS011;39539;52.202;9.876;2023-04-02T04:24:01;1.20;;;1.10;;
19675;SDS011;39539;52.202;9.876;2023-04-02T04:29:31;2.70;;;1.50;;
19675;SDS011;39539;52.202;9.876;2023-04-02T04:32:09;2.45;;;1.40;;
19675;SDS011;39539;52.202;9.876;2023-04-02T04:34:51;1.67;;;1.38;;
19675;SDS011;39539;52.202;9.876;2023-04-02T04:37:23;4.03;;;1.27;;
19675;SDS011;39539;52.202;9.876;2023-04-02T04:42:26;2.97;;;1.33;;
19675;SDS011;39539;52.202;9.876;2023-04-02T04:45:12;2.65;;;1.60;;
19675;SDS011;39539;52.202;9.876;2023-04-02T04:48:00;2.17;;;1.83;;
19675;SDS011;39539;52.202;9.876;2023-04-02T04:50:54;3.17;;;1.30;;
19675;SDS011;39539;52.202;9.876;2023-04-02T04:53:25;4.07;;;1.33;;
19675;SDS011;39539;52.202;9.876;2023-04-02T04:55:56;2.47;;;1.45;;
19675;SDS011;39539;52.202;9.876;2023-04-02T04:58:34;3.03;;;1.70;;
19675;SDS011;39539;52.202;9.876;2023-04-02T05:01:09;3.03;;;1.38;;
19675;SDS011;39539;52.202;9.876;2023-04-02T05:09:13;2.20;;;1.65;;
19675;SDS011;39539;52.202;9.876;2023-04-02T05:11:48;2.30;;;1.45;;
19675;SDS011;39539;52.202;9.876;2023-04-02T05:14:19;2.17;;;1.73;;
19675;SDS011;39539;52.202;9.876;2023-04-02T05:16:54;2.67;;;1.55;;
19675;SDS011;39539;52.202;9.876;2023-04-02T05:22:02;2.92;;;2.08;;
19675;SDS011;39539;52.202;9.876;2023-04-02T05:24:39;2.00;;;1.70;;
19675;SDS011;39539;52.202;9.876;2023-04-02T05:27:16;1.52;;;1.40;;
19675;SDS011;39539;52.202;9.876;2023-04-02T05:30:08;3.47;;;1.60;;
19675;SDS011;39539;52.202;9.876;2023-04-02T05:32:58;1.70;;;1.60;;
19675;SDS011;39539;52.202;9.876;2023-04-02T05:35:31;2.33;;;1.75;;
19675;SDS011;39539;52.202;9.876;2023-04-02T05:38:05;3.65;;;1.40;;
19675;SDS011;39539;52.202;9.876;2023-04-02T05:40:41;6.28;;;1.77;;
19675;SDS011;39539;52.202;9.876;2023-04-02T05:43:10;2.25;;;1.45;;
19675;SDS011;39539;52.202;9.876;2023-04-02T05:45:42;3.35;;;1.85;;
19675;SDS011;39539;52.202;9.876;2023-04-02T05:48:16;2.35;;;1.60;;
19675;SDS011;39539;52.202;9.876;2023-04-02T05:50:50;3.55;;;1.85;;
19675;SDS011;39539;52.202;9.876;2023-04-02T05:53:20;1.63;;;1.42;;
19675;SDS011;39539;52.202;9.876;2023-04-02T05:58:38;2.22;;;1.40;;
19675;SDS011;39539;52.202;9.876;2023-04-02T06:06:50;2.28;;;1.60;;
19675;SDS011;39539;52.202;9.876;2023-04-02T06:12:25;3.28;;;1.10;;
19675;SDS011;39539;52.202;9.876;2023-04-02T06:14:46;1.75;;;1.55;;
19675;SDS011;39539;52.202;9.876;2023-04-02T06:17:13;1.98;;;1.60;;
19675;SDS011;39539;52.202;9.876;2023-04-02T06:19:40;1.52;;;1.40;;
19675;SDS011;39539;52.202;9.876;2023-04-02T06:25:03;2.72;;;1.95;;
19675;SDS011;39539;52.202;9.876;2023-04-02T06:27:35;2.35;;;1.70;;
19675;SDS011;39539;52.202;9.876;2023-04-02T06:30:03;1.95;;;1.55;;
19675;SDS011;39539;52.202;9.876;2023-04-02T06:32:34;2.03;;;1.70;;
19675;SDS011;39539;52.202;9.876;2023-04-02T06:35:00;2.05;;;1.50;;
19675;SDS011;39539;52.202;9.876;2023-04-02T06:37:27;2.65;;;1.63;;
19675;SDS011;39539;52.202;9.876;2023-04-02T06:39:57;2.92;;;1.50;;
19675;SDS011;39539;52.202;9.876;2023-04-02T06:42:24;1.73;;;1.42;;
19675;SDS011;39539;52.202;9.876;2023-04-02T06:44:52;3.33;;;1.73;;
19675;SDS011;39539;52.202;9.876;2023-04-02T06:47:22;1.55;;;1.45;;
19675;SDS011;39539;52.202;9.876;2023-04-02T06:52:32;2.78;;;1.50;;
19675;SDS011;39539;52.202;9.876;2023-04-02T06:58:16;2.67;;;1.75;;
19675;SDS011;39539;52.202;9.876;2023-04-02T07:00:44;4.97;;;1.83;;
19675;SDS011;39539;52.202;9.876;2023-04-02T07:03:28;2.03;;;1.33;;
19675;SDS011;39539;52.202;9.876;2023-04-02T07:05:55;1.75;;;1.60;;
19675;SDS011;39539;52.202;9.876;2023-04-02T07:08:23;3.08;;;1.65;;
19675;SDS011;39539;52.202;9.876;2023-04-02T07:10:49;3.67;;;1.70;;
19675;SDS011;39539;52.202;9.876;2023-04-02T07:13:15;1.60;;;1.50;;
19675;SDS011;39539;52.202;9.876;2023-04-02T07:15:45;1.40;;;1.30;;
19675;SDS011;39539;52.202;9.876;2023-04-02T07:18:21;2.47;;;1.75;;
19675;SDS011;39539;52.202;9.876;2023-04-02T07:20:47;2.03;;;1.60;;
19675;SDS011;39539;52.202;9.876;2023-04-02T07:23:13;5.10;;;1.70;;
19675;SDS011;39539;52.202;9.876;2023-04-02T07:25:38;3.20;;;1.92;;
19675;SDS011;39539;52.202;9.876;2023-04-02T07:28:04;2.65;;;1.60;;
19675;SDS011;39539;52.202;9.876;2023-04-02T07:30:30;1.83;;;1.10;;
19675;SDS011;39539;52.202;9.876;2023-04-02T07:32:55;2.75;;;1.63;;
19675;SDS011;39539;52.202;9.876;2023-04-02T07:35:20;2.42;;;1.60;;
19675;SDS011;39539;52.202;9.876;2023-04-02T07:37:46;2.33;;;1.55;;
19675;SDS011;39539;52.202;9.876;2023-04-02T07:40:16;1.50;;;1.40;;
19675;SDS011;39539;52.202;9.876;2023-04-02T07:42:44;2.08;;;1.60;;
19675;SDS011;39539;52.202;9.876;2023-04-02T07:45:10;1.52;;;1.40;;
19675;SDS011;39539;52.202;9.876;2023-04-02T07:47:36;1.65;;;1.27;;
19675;SDS011;39539;52.202;9.876;2023-04-02T07:50:02;3.03;;;1.50;;
19675;SDS011;39539;52.202;9.876;2023-04-02T07:52:27;2.15;;;1.48;;
19675;SDS011;39539;52.202;9.876;2023-04-02T07:54:53;1.88;;;1.17;;
19675;SDS011;39539;52.202;9.876;2023-04-02T07:57:18;2.72;;;1.38;;
19675;SDS011;39539;52.202;9.876;2023-04-02T07:59:43;3.10;;;1.27;;
19675;SDS011;39539;52.202;9.876;2023-04-02T08:02:21;3.17;;;1.58;;
19675;SDS011;39539;52.202;9.876;2023-04-02T08:04:47;2.78;;;1.58;;
19675;SDS011;39539;52.202;9.876;2023-04-02T08:07:15;1.30;;;1.20;;
19675;SDS011;39539;52.202;9.876;2023-04-02T08:09:42;0.90;;;0.90;;
19675;SDS011;39539;52.202;9.876;2023-04-02T08:12:10;2.97;;;1.52;;
19675;SDS011;39539;52.202;9.876;2023-04-02T08:14:39;2.67;;;1.63;;
19675;SDS011;39539;52.202;9.876;2023-04-02T08:17:05;1.65;;;1.45;;
19675;SDS011;39539;52.202;9.876;2023-04-02T08:19:30;2.28;;;2.03;;
19675;SDS011;39539;52.202;9.876;2023-04-02T08:21:57;3.40;;;1.30;;
19675;SDS011;39539;52.202;9.876;2023-04-02T08:24:22;1.42;;;1.30;;
19675;SDS011;39539;52.202;9.876;2023-04-02T08:26:48;2.58;;;1.30;;
19675;SDS011;39539;52.202;9.876;2023-04-02T08:29:15;3.13;;;1.25;;
19675;SDS011;39539;52.202;9.876;2023-04-02T08:31:40;2.97;;;1.70;;
19675;SDS011;39539;52.202;9.876;2023-04-02T08:34:06;2.58;;;1.77;;
19675;SDS011;39539;52.202;9.876;2023-04-02T08:36:32;1.70;;;1.60;;
19675;SDS011;39539;52.202;9.876;2023-04-02T08:39:00;2.35;;;1.73;;
19675;SDS011;39539;52.202;9.876;2023-04-02T08:41:26;2.65;;;1.60;;
19675;SDS011;39539;52.202;9.876;2023-04-02T08:46:51;2.10;;;1.70;;
19675;SDS011;39539;52.202;9.876;2023-04-02T08:49:54;3.08;;;2.13;;
19675;SDS011;39539;52.202;9.876;2023-04-02T08:52:27;3.03;;;1.85;;
19675;SDS011;39539;52.202;9.876;2023-04-02T08:54:56;2.00;;;1.80;;
19675;SDS011;39539;52.202;9.876;2023-04-02T09:00:24;2.45;;;1.50;;
19675;SDS011;39539;52.202;9.876;2023-04-02T09:05:36;2.42;;;1.73;;
19675;SDS011;39539;52.202;9.876;2023-04-02T09:08:09;3.35;;;1.55;;
19675;SDS011;39539;52.202;9.876;2023-04-02T09:10:41;3.35;;;1.90;;
19675;SDS011;39539;52.202;9.876;2023-04-02T09:13:15;2.63;;;1.52;;
19675;SDS011;39539;52.202;9.876;2023-04-02T09:15:46;3.55;;;1.92;;
19675;SDS011;39539;52.202;9.876;2023-04-02T09:18:14;2.83;;;2.00;;
19675;SDS011;39539;52.202;9.876;2023-04-02T09:20:40;1.55;;;1.45;;
19675;SDS011;39539;52.202;9.876;2023-04-02T09:23:08;2.13;;;1.40;;
19675;SDS011;39539;52.202;9.876;2023-04-02T09:25:43;2.47;;;1.70;;
19675;SDS011;39539;52.202;9.876;2023-04-02T09:28:11;2.60;;;1.80;;
19675;SDS011;39539;52.202;9.876;2023-04-02T09:33:12;3.85;;;2.08;;
19675;SDS011;39539;52.202;9.876;2023-04-02T09:38:25;2.65;;;1.75;;
19675;SDS011;39539;52.202;9.876;2023-04-02T09:40:57;1.88;;;1.70;;
19675;SDS011;39539;52.202;9.876;2023-04-02T09:43:24;1.92;;;1.67;;
19675;SDS011;39539;52.202;9.876;2023-04-02T09:48:37;1.95;;;1.60;;
19675;SDS011;39539;52.202;9.876;2023-04-02T09:51:15;2.75;;;1.60;;
19675;SDS011;39539;52.202;9.876;2023-04-02T09:56:19;2.53;;;1.85;;
19675;SDS011;39539;52.202;9.876;2023-04-02T09:59:00;2.08;;;1.40;;
19675;SDS011;39539;52.202;9.876;2023-04-02T10:01:36;1.83;;;1.73;;
19675;SDS011;39539;52.202;9.876;2023-04-02T10:04:05;2.28;;;1.92;;
19675;SDS011;39539;52.202;9.876;2023-04-02T10:06:50;2.08;;;1.58;;
19675;SDS011;39539;52.202;9.876;2023-04-02T10:09:18;2.72;;;1.70;;
19675;SDS011;39539;52.202;9.876;2023-04-02T10:11:51;2.65;;;1.98;;
19675;SDS011;39539;52.202;9.876;2023-04-02T10:14:20;1.90;;;1.67;;
19675;SDS011;39539;52.202;9.876;2023-04-02T10:16:51;6.45;;;1.80;;
19675;SDS011;39539;52.202;9.876;2023-04-02T10:21:57;2.05;;;1.70;;
19675;SDS011;39539;52.202;9.876;2023-04-02T10:24:27;1.80;;;1.70;;
19675;SDS011;39539;52.202;9.876;2023-04-02T10:48:32;2.13;;;1.45;;
19675;SDS011;39539;52.202;9.876;2023-04-02T10:56:33;1.60;;;1.50;;
19675;SDS011;39539;52.202;9.876;2023-04-02T10:59:34;2.30;;;1.58;;
19675;SDS011;39539;52.202;9.876;2023-04-02T11:01:56;3.30;;;1.58;;
19675;SDS011;39539;52.202;9.876;2023-04-02T11:04:26;1.85;;;1.60;;
19675;SDS011;39539;52.202;9.876;2023-04-02T11:07:05;2.72;;;1.75;;
19675;SDS011;39539;52.202;9.876;2023-04-02T11:09:39;3.00;;;1.42;;
19675;SDS011;39539;52.202;9.876;2023-04-02T11:12:10;4.43;;;1.60;;
19675;SDS011;39539;52.202;9.876;2023-04-02T11:15:00;3.60;;;1.73;;
19675;SDS011;39539;52.202;9.876;2023-04-02T11:17:26;3.65;;;1.20;;
19675;SDS011;39539;52.202;9.876;2023-04-02T11:19:52;1.58;;;1.10;;
19675;SDS011;39539;52.202;9.876;2023-04-02T11:24:48;1.40;;;1.10;;
19675;SDS011;39539;52.202;9.876;2023-04-02T11:32:44;2.85;;;1.40;;
19675;SDS011;39539;52.202;9.876;2023-04-02T11:37:50;2.08;;;1.25;;
19675;SDS011;39539;52.202;9.876;2023-04-02T11:48:27;0.98;;;0.90;;
19675;SDS011;39539;52.202;9.876;2023-04-02T11:50:54;2.72;;;1.20;;
19675;SDS011;39539;52.202;9.876;2023-04-02T11:53:21;1.50;;;1.25;;
19675;SDS011;39539;52.202;9.876;2023-04-02T12:04:11;4.00;;;1.38;;
19675;SDS011;39539;52.202;9.876;2023-04-02T12:09:54;1.58;;;1.20;;
19675;SDS011;39539;52.202;9.876;2023-04-02T12:14:48;2.50;;;1.55;;
19675;SDS011;39539;52.202;9.876;2023-04-02T12:19:49;2.22;;;1.30;;
19675;SDS011;39539;52.202;9.876;2023-04-02T12:22:21;2.10;;;1.45;;
19675;SDS011;39539;52.202;9.876;2023-04-02T12:24:49;2.10;;;1.35;;
19675;SDS011;39539;52.202;9.876;2023-04-02T12:27:21;1.77;;;1.30;;
19675;SDS011;39539;52.202;9.876;2023-04-02T12:29:52;2.50;;;1.85;;
19675;SDS011;39539;52.202;9.876;2023-04-02T12:32:28;1.92;;;1.30;;
19675;SDS011;39539;52.202;9.876;2023-04-02T12:34:55;2.20;;;1.40;;
19675;SDS011;39539;52.202;9.876;2023-04-02T12:37:26;2.30;;;1.45;;
19675;SDS011;39539;52.202;9.876;2023-04-02T12:39:57;2.10;;;1.10;;
19675;SDS011;39539;52.202;9.876;2023-04-02T12:42:24;1.85;;;1.27;;
19675;SDS011;39539;52.202;9.876;2023-04-02T12:44:55;1.83;;;1.27;;
19675;SDS011;39539;52.202;9.876;2023-04-02T12:47:20;3.25;;;1.42;;
19675;SDS011;39539;52.202;9.876;2023-04-02T12:49:46;1.95;;;1.23;;
19675;SDS011;39539;52.202;9.876;2023-04-02T12:52:14;2.25;;;1.45;;
19675;SDS011;39539;52.202;9.876;2023-04-02T12:54:48;1.60;;;1.45;;
19675;SDS011;39539;52.202;9.876;2023-04-02T12:59:49;1.63;;;1.40;;
19675;SDS011;39539;52.202;9.876;2023-04-02T13:02:19;2.40;;;1.23;;
19675;SDS011;39539;52.202;9.876;2023-04-02T13:04:50;1.60;;;1.50;;
19675;SDS011;39539;52.202;9.876;2023-04-02T13:07:18;3.35;;;1.65;;
19675;SDS011;39539;52.202;9.876;2023-04-02T13:09:47;3.63;;;1.60;;
19675;SDS011;39539;52.202;9.876;2023-04-02T13:14:56;2.67;;;1.80;;
19675;SDS011;39539;52.202;9.876;2023-04-02T13:17:40;1.58;;;1.20;;
19675;SDS011;39539;52.202;9.876;2023-04-02T13:20:27;3.15;;;1.45;;
19675;SDS011;39539;52.202;9.876;2023-04-02T13:22:58;2.88;;;1.38;;
19675;SDS011;39539;52.202;9.876;2023-04-02T13:25:29;1.73;;;1.23;;
19675;SDS011;39539;52.202;9.876;2023-04-02T13:27:59;3.58;;;1.45;;
19675;SDS011;39539;52.202;9.876;2023-04-02T13:30:26;1.58;;;1.30;;
19675;SDS011;39539;52.202;9.876;2023-04-02T13:32:53;1.45;;;1.15;;
19675;SDS011;39539;52.202;9.876;2023-04-02T13:35:18;1.98;;;1.35;;
19675;SDS011;39539;52.202;9.876;2023-04-02T13:37:45;1.35;;;1.23;;
19675;SDS011;39539;52.202;9.876;2023-04-02T13:40:13;1.85;;;1.25;;
19675;SDS011;39539;52.202;9.876;2023-04-02T13:42:43;2.25;;;1.00;;
19675;SDS011;39539;52.202;9.876;2023-04-02T13:47:53;1.92;;;1.30;;
19675;SDS011;39539;52.202;9.876;2023-04-02T13:50:22;2.15;;;1.20;;
19675;SDS011;39539;52.202;9.876;2023-04-02T13:52:51;3.95;;;1.40;;
19675;SDS011;39539;52.202;9.876;2023-04-02T13:55:18;3.30;;;1.13;;
19675;SDS011;39539;52.202;9.876;2023-04-02T13:57:47;2.42;;;1.15;;
19675;SDS011;39539;52.202;9.876;2023-04-02T14:00:14;1.83;;;0.98;;
19675;SDS011;39539;52.202;9.876;2023-04-02T14:02:41;0.98;;;0.85;;
19675;SDS011;39539;52.202;9.876;2023-04-02T14:08:10;0.80;;;0.80;;
19675;SDS011;39539;52.202;9.876;2023-04-02T14:10:54;1.70;;;0.90;;
19675;SDS011;39539;52.202;9.876;2023-04-02T14:13:53;1.63;;;0.93;;
19675;SDS011;39539;52.202;9.876;2023-04-02T14:16:26;1.88;;;1.00;;
19675;SDS011;39539;52.202;9.876;2023-04-02T14:27:21;1.58;;;0.70;;
19675;SDS011;39539;52.202;9.876;2023-04-02T14:38:12;1.70;;;0.73;;
19675;SDS011;39539;52.202;9.876;2023-04-02T14:43:19;1.30;;;0.70;;
19675;SDS011;39539;52.202;9.876;2023-04-02T14:56:20;1.45;;;0.73;;
19675;SDS011;39539;52.202;9.876;2023-04-02T14:58:50;1.92;;;0.88;;
19675;SDS011;39539;52.202;9.876;2023-04-02T15:01:29;1.83;;;0.77;;
19675;SDS011;39539;52.202;9.876;2023-04-02T15:06:38;1.75;;;0.70;;
19675;SDS011;39539;52.202;9.876;2023-04-02T15:09:15;1.30;;;0.63;;
19675;SDS011;39539;52.202;9.876;2023-04-02T15:12:20;1.05;;;0.73;;
19675;SDS011;39539;52.202;9.876;2023-04-02T15:14:44;1.50;;;0.75;;
19675;SDS011;39539;52.202;9.876;2023-04-02T15:17:12;1.42;;;0.75;;
19675;SDS011;39539;52.202;9.876;2023-04-02T15:19:38;1.40;;;0.80;;
19675;SDS011;39539;52.202;9.876;2023-04-02T15:22:10;1.38;;;0.88;;
19675;SDS011;39539;52.202;9.876;2023-04-02T15:32:49;1.75;;;0.75;;
19675;SDS011;39539;52.202;9.876;2023-04-02T15:37:56;2.40;;;0.80;;
19675;SDS011;39539;52.202;9.876;2023-04-02T16:05:17;1.38;;;0.80;;
19675;SDS011;39539;52.202;9.876;2023-04-02T16:10:21;1.33;;;0.70;;
19675;SDS011;39539;52.202;9.876;2023-04-02T16:12:52;1.90;;;0.80;;
19675;SDS011;39539;52.202;9.876;2023-04-02T16:15:25;1.25;;;0.70;;
19675;SDS011;39539;52.202;9.876;2023-04-02T16:17:59;1.50;;;0.80;;
19675;SDS011;39539;52.202;9.876;2023-04-02T16:20:35;2.25;;;0.90;;
19675;SDS011;39539;52.202;9.876;2023-04-02T16:23:10;2.13;;;1.00;;
19675;SDS011;39539;52.202;9.876;2023-04-02T16:25:47;2.65;;;0.98;;
19675;SDS011;39539;52.202;9.876;2023-04-02T16:28:28;1.40;;;0.90;;
19675;SDS011;39539;52.202;9.876;2023-04-02T16:42:31;4.00;;;1.00;;
19675;SDS011;39539;52.202;9.876;2023-04-02T16:52:55;2.08;;;0.88;;
19675;SDS011;39539;52.202;9.876;2023-04-02T17:01:07;1.73;;;0.90;;
19675;SDS011;39539;52.202;9.876;2023-04-02T17:06:31;2.47;;;1.23;;
19675;SDS011;39539;52.202;9.876;2023-04-02T17:14:16;4.07;;;1.00;;
19675;SDS011;39539;52.202;9.876;2023-04-02T17:16:46;2.47;;;0.80;;
19675;SDS011;39539;52.202;9.876;2023-04-02T17:19:16;1.90;;;1.20;;
19675;SDS011;39539;52.202;9.876;2023-04-02T17:21:45;2.25;;;1.10;;
19675;SDS011;39539;52.202;9.876;2023-04-02T17:24:24;1.77;;;1.00;;
19675;SDS011;39539;52.202;9.876;2023-04-02T17:26:59;1.73;;;0.93;;
19675;SDS011;39539;52.202;9.876;2023-04-02T17:29:42;2.20;;;1.05;;
19675;SDS011;39539;52.202;9.876;2023-04-02T17:32:23;1.58;;;0.93;;
19675;SDS011;39539;52.202;9.876;2023-04-02T17:34:51;2.00;;;1.00;;
19675;SDS011;39539;52.202;9.876;2023-04-02T17:39:57;1.38;;;0.95;;
19675;SDS011;39539;52.202;9.876;2023-04-02T17:42:55;1.92;;;1.35;;
19675;SDS011;39539;52.202;9.876;2023-04-02T17:48:21;2.25;;;1.30;;
19675;SDS011;39539;52.202;9.876;2023-04-02T17:53:36;3.25;;;1.17;;
19675;SDS011;39539;52.202;9.876;2023-04-02T17:56:29;2.03;;;1.40;;
19675;SDS011;39539;52.202;9.876;2023-04-02T17:59:19;2.75;;;1.00;;
19675;SDS011;39539;52.202;9.876;2023-04-02T18:04:54;1.10;;;1.00;;
19675;SDS011;39539;52.202;9.876;2023-04-02T18:08:15;1.92;;;1.20;;
19675;SDS011;39539;52.202;9.876;2023-04-02T18:10:42;1.77;;;1.00;;
19675;SDS011;39539;52.202;9.876;2023-04-02T18:21:45;1.88;;;1.63;;
19675;SDS011;39539;52.202;9.876;2023-04-02T18:27:20;2.47;;;1.13;;
19675;SDS011;39539;52.202;9.876;2023-04-02T18:40:39;4.18;;;1.30;;
19675;SDS011;39539;52.202;9.876;2023-04-02T18:48:26;4.38;;;1.20;;
19675;SDS011;39539;52.202;9.876;2023-04-02T18:50:53;1.38;;;1.00;;
19675;SDS011;39539;52.202;9.876;2023-04-02T18:53:20;2.58;;;1.35;;
19675;SDS011;39539;52.202;9.876;2023-04-02T18:55:49;4.38;;;1.80;;
19675;SDS011;39539;52.202;9.876;2023-04-02T18:58:21;1.80;;;1.10;;
19675;SDS011;39539;52.202;9.876;2023-04-02T19:00:52;2.30;;;0.98;;
19675;SDS011;39539;52.202;9.876;2023-04-02T19:06:06;1.45;;;1.10;;
19675;SDS011;39539;52.202;9.876;2023-04-02T19:08:44;2.40;;;1.17;;
19675;SDS011;39539;52.202;9.876;2023-04-02T19:11:16;1.52;;;1.00;;
19675;SDS011;39539;52.202;9.876;2023-04-02T19:13:44;2.22;;;1.10;;
19675;SDS011;39539;52.202;9.876;2023-04-02T19:26:53;2.05;;;1.35;;
19675;SDS011;39539;52.202;9.876;2023-04-02T19:35:26;2.85;;;1.15;;
19675;SDS011;39539;52.202;9.876;2023-04-02T19:43:01;4.70;;;1.08;;
19675;SDS011;39539;52.202;9.876;2023-04-02T19:45:39;2.85;;;1.13;;
19675;SDS011;39539;52.202;9.876;2023-04-02T19:48:12;2.60;;;1.20;;
19675;SDS011;39539;52.202;9.876;2023-04-02T19:50:39;1.63;;;1.17;;
19675;SDS011;39539;52.202;9.876;2023-04-02T19:53:06;3.08;;;1.50;;
19675;SDS011;39539;52.202;9.876;2023-04-02T19:55:32;1.63;;;1.00;;
19675;SDS011;39539;52.202;9.876;2023-04-02T19:57:57;1.70;;;1.17;;
19675;SDS011;39539;52.202;9.876;2023-04-02T20:00:23;2.55;;;1.10;;
19675;SDS011;39539;52.202;9.876;2023-04-02T20:02:48;2.13;;;1.65;;
19675;SDS011;39539;52.202;9.876;2023-04-02T20:05:13;3.50;;;1.30;;
19675;SDS011;39539;52.202;9.876;2023-04-02T20:07:42;1.92;;;1.42;;
19675;SDS011;39539;52.202;9.876;2023-04-02T20:10:08;2.60;;;1.45;;
19675;SDS011;39539;52.202;9.876;2023-04-02T20:12:33;1.73;;;1.40;;
19675;SDS011;39539;52.202;9.876;2023-04-02T20:14:59;2.67;;;1.35;;
19675;SDS011;39539;52.202;9.876;2023-04-02T20:17:24;4.10;;;1.50;;
19675;SDS011;39539;52.202;9.876;2023-04-02T20:19:49;2.85;;;1.40;;
19675;SDS011;39539;52.202;9.876;2023-04-02T20:22:15;3.05;;;1.42;;
19675;SDS011;39539;52.202;9.876;2023-04-02T20:24:42;2.35;;;1.42;;
19675;SDS011;39539;52.202;9.876;2023-04-02T20:27:08;1.92;;;1.23;;
19675;SDS011;39539;52.202;9.876;2023-04-02T20:29:33;2.38;;;1.55;;
19675;SDS011;39539;52.202;9.876;2023-04-02T20:31:59;3.53;;;1.27;;
19675;SDS011;39539;52.202;9.876;2023-04-02T20:34:24;2.92;;;1.75;;
19675;SDS011;39539;52.202;9.876;2023-04-02T20:36:49;2.13;;;1.35;;
19675;SDS011;39539;52.202;9.876;2023-04-02T20:39:15;3.17;;;1.60;;
19675;SDS011;39539;52.202;9.876;2023-04-02T20:41:43;3.45;;;1.20;;
19675;SDS011;39539;52.202;9.876;2023-04-02T20:44:09;2.38;;;1.23;;
19675;SDS011;39539;52.202;9.876;2023-04-02T20:46:36;3.50;;;1.70;;
19675;SDS011;39539;52.202;9.876;2023-04-02T20:49:01;2.97;;;1.30;;
19675;SDS011;39539;52.202;9.876;2023-04-02T20:51:27;2.15;;;1.60;;